Terminal Aerodrome Forecast
Issued by NWS Buffalo, NY

Home | Current Version | Previous Version | Text Only | Print | Product List | Glossary On
Versions: 1 2 3 4 5 6 7 8 9 10 11 12 13 14 15 16 17 18 19 20 21 22 23 24 25
000
FTUS41 KBUF 170534
TAFBUF
TAF
KBUF 170534Z 1706/1806 VRB03KT P6SM VCSH OVC050
     FM170700 VRB03KT P6SM -FZRA OVC035
     FM170900 09004KT P6SM -RA OVC035
     FM171600 12009KT 2SM -RA OVC007
     FM172100 20008KT 2SM -RA OVC007
     FM180000 22011KT 5SM -SHRA OVC012=

USA.gov is the U.S. government's official web portal to all federal, state and local government web resources and services.